Time;durP1;ratioP1;P1;durP2;ratioP2;P2;SDS_P1;SDS_P2;PMS_P1;PMS_P2;Temp;Humidity;BMP_temperature;BMP_pressure;BME280_temperature;BME280_humidity;BME280_pressure;Samples;Min_cycle;Max_cycle;Signal;HPM_P1;HPM_P2
2021/04/07 00:03:11;;;;;;;64.10;21.02;;;-0.20;99.90;;;;;;8297262;28;20030;-67
2021/04/07 00:07:12;;;;;;;64.57;21.23;;;-0.20;99.90;;;;;;8296005;28;20084;-67
2021/04/07 00:11:13;;;;;;;65.55;21.38;;;-0.20;99.90;;;;;;8327469;28;20108;-67
2021/04/07 00:15:18;;;;;;;65.88;21.27;;;-0.20;99.90;;;;;;8309471;28;20057;-67
2021/04/07 00:19:18;;;;;;;65.97;21.25;;;-0.20;99.90;;;;;;8300676;28;20025;-66
2021/04/07 00:23:19;;;;;;;65.60;21.10;;;-0.10;99.90;;;;;;8321042;28;20029;-67
2021/04/07 00:27:25;;;;;;;65.22;21.00;;;-0.20;99.90;;;;;;8320529;28;20022;-67
2021/04/07 00:31:26;;;;;;;65.43;21.38;;;-0.20;99.90;;;;;;8323039;28;20488;-67
2021/04/07 00:35:27;;;;;;;64.93;21.25;;;-0.20;99.90;;;;;;8299461;28;20026;-66
2021/04/07 00:39:28;;;;;;;64.00;21.17;;;-0.20;99.90;;;;;;8299069;28;20097;-66
2021/04/07 00:43:28;;;;;;;63.53;21.13;;;-0.20;99.90;;;;;;8298658;28;20026;-67
2021/04/07 00:47:29;;;;;;;64.00;21.38;;;-0.30;99.90;;;;;;8327527;28;20404;-66
2021/04/07 00:51:30;;;;;;;63.15;21.42;;;-0.30;99.90;;;;;;8331282;28;20042;-67
2021/04/07 00:55:35;;;;;;;62.92;21.35;;;-0.40;99.90;;;;;;8329793;28;20033;-67
2021/04/07 00:59:35;;;;;;;64.07;21.35;;;-0.50;99.90;;;;;;8331069;28;20117;-68
2021/04/07 01:03:36;;;;;;;63.55;21.35;;;-0.50;99.90;;;;;;8330693;28;20041;-67
2021/04/07 01:07:37;;;;;;;61.95;21.05;;;-0.50;99.90;;;;;;8331036;28;20069;-67
2021/04/07 01:11:37;;;;;;;62.72;21.15;;;-0.50;99.90;;;;;;8329928;28;20492;-67
2021/04/07 01:15:38;;;;;;;64.22;21.35;;;-0.60;99.90;;;;;;8330409;28;20052;-67
2021/04/07 01:19:39;;;;;;;62.92;21.25;;;-0.70;99.90;;;;;;8327592;28;20399;-67
2021/04/07 01:23:47;;;;;;;64.32;21.45;;;-0.80;99.90;;;;;;8329085;28;20076;-67
2021/04/07 01:27:48;;;;;;;63.60;21.33;;;-0.80;99.90;;;;;;8329738;28;20037;-67
2021/04/07 01:31:54;;;;;;;63.60;21.17;;;-0.70;99.90;;;;;;8329346;28;20025;-67
2021/04/07 01:35:54;;;;;;;63.40;21.25;;;-0.60;99.90;;;;;;8329482;28;20387;-67
2021/04/07 01:39:55;;;;;;;64.82;21.52;;;-0.60;99.90;;;;;;8329925;28;20036;-67
2021/04/07 01:43:55;;;;;;;62.55;20.42;;;-0.60;99.90;;;;;;8329626;28;20091;-67
2021/04/07 01:47:56;;;;;;;64.22;21.15;;;-0.70;99.90;;;;;;8328575;28;20165;-67
2021/04/07 01:51:57;;;;;;;65.25;21.42;;;-0.60;99.90;;;;;;8296538;28;20099;-67
2021/04/07 01:55:57;;;;;;;64.25;21.30;;;-0.50;99.90;;;;;;8296544;28;20113;-67
2021/04/07 01:59:58;;;;;;;64.97;21.35;;;-0.60;99.90;;;;;;8319938;28;20029;-67
2021/04/07 02:03:59;;;;;;;65.03;21.25;;;-0.70;99.90;;;;;;8329029;28;20421;-67
2021/04/07 02:08:00;;;;;;;64.43;21.42;;;-0.70;99.90;;;;;;8328447;28;20026;-68
2021/04/07 02:12:00;;;;;;;63.38;21.15;;;-0.80;99.90;;;;;;8328910;28;20052;-67
2021/04/07 02:16:08;;;;;;;64.30;21.33;;;-0.90;99.90;;;;;;8328679;28;20496;-67
2021/04/07 02:20:09;;;;;;;66.13;21.40;;;-0.90;99.90;;;;;;8327130;28;20583;-67
2021/04/07 02:24:10;;;;;;;63.85;21.33;;;-0.80;99.90;;;;;;8327244;28;20029;-67
2021/04/07 02:28:10;;;;;;;62.95;21.15;;;-0.60;99.90;;;;;;8328653;28;20486;-67
2021/04/07 02:32:11;;;;;;;63.58;21.48;;;-0.80;99.90;;;;;;8327830;28;20033;-67
2021/04/07 02:36:12;;;;;;;62.55;21.17;;;-0.90;99.90;;;;;;8328253;28;20104;-67
2021/04/07 02:40:13;;;;;;;62.42;21.58;;;-1.10;99.90;;;;;;8326991;28;20037;-67
2021/04/07 02:44:13;;;;;;;60.65;20.67;;;-1.20;99.90;;;;;;8327803;28;20025;-68
2021/04/07 02:48:14;;;;;;;64.30;21.50;;;-1.40;99.90;;;;;;8327862;28;20048;-67
2021/04/07 02:52:14;;;;;;;62.65;21.58;;;-1.50;99.90;;;;;;8325067;28;20520;-67
2021/04/07 02:56:15;;;;;;;63.03;21.48;;;-1.50;99.90;;;;;;8310940;28;20045;-67
2021/04/07 03:00:16;;;;;;;62.15;21.27;;;-1.60;99.90;;;;;;8292593;28;20026;-67
2021/04/07 03:04:17;;;;;;;60.10;20.85;;;-1.50;99.90;;;;;;8294512;28;20033;-67
2021/04/07 03:08:17;;;;;;;60.60;21.25;;;-1.40;99.90;;;;;;8294833;28;20431;-66
2021/04/07 03:12:18;;;;;;;57.45;20.80;;;-1.50;99.90;;;;;;8294445;28;20030;-69
2021/04/07 03:16:19;;;;;;;54.35;20.10;;;-1.50;99.90;;;;;;8294200;28;20030;-67
2021/04/07 03:20:20;;;;;;;57.22;20.65;;;-1.50;99.90;;;;;;8293709;28;20057;-67
2021/04/07 03:24:20;;;;;;;56.97;20.80;;;-1.40;99.90;;;;;;8293568;28;20066;-67
2021/04/07 03:28:22;;;;;;;55.75;20.38;;;-1.40;99.90;;;;;;8320868;28;20033;-67
2021/04/07 03:32:22;;;;;;;55.95;20.60;;;-1.50;99.90;;;;;;8326325;28;20104;-68
2021/04/07 03:36:23;;;;;;;55.17;20.20;;;-1.40;99.90;;;;;;8318561;28;20037;-67
2021/04/07 03:40:23;;;;;;;54.75;20.27;;;-1.30;99.90;;;;;;8303831;28;20048;-67
2021/04/07 03:44:24;;;;;;;53.72;20.38;;;-1.30;99.90;;;;;;8307731;28;20566;-66
2021/04/07 03:48:27;;;;;;;53.95;20.45;;;-1.30;99.90;;;;;;8309474;28;20048;-66
2021/04/07 03:52:28;;;;;;;54.30;20.30;;;-1.30;99.90;;;;;;8303548;28;20717;-67
2021/04/07 03:56:28;;;;;;;49.45;19.88;;;-1.30;99.90;;;;;;8303885;28;20038;-67
2021/04/07 04:00:30;;;;;;;50.92;20.20;;;-1.20;99.90;;;;;;8321619;28;20373;-67
2021/04/07 04:04:30;;;;;;;52.75;20.52;;;-1.20;99.90;;;;;;8326244;28;20033;-67
2021/04/07 04:08:31;;;;;;;51.05;19.85;;;-1.30;99.90;;;;;;8325045;28;20403;-67
2021/04/07 04:12:31;;;;;;;51.30;19.98;;;-1.20;99.90;;;;;;8317567;28;20026;-66
2021/04/07 04:16:32;;;;;;;51.47;20.05;;;-1.10;99.90;;;;;;8317464;28;20034;-67
2021/04/07 04:20:33;;;;;;;54.15;20.77;;;-1.00;99.90;;;;;;8316532;28;20382;-68
2021/04/07 04:24:34;;;;;;;51.67;20.15;;;-1.00;99.90;;;;;;8301342;28;20034;-66
2021/04/07 04:28:34;;;;;;;52.75;20.38;;;-1.00;99.90;;;;;;8303619;28;20025;-67
2021/04/07 04:32:35;;;;;;;52.92;20.25;;;-1.00;99.90;;;;;;8298431;28;20083;-68
2021/04/07 04:36:35;;;;;;;56.53;21.20;;;-1.00;99.90;;;;;;8299374;28;20489;-66
2021/04/07 04:40:36;;;;;;;55.13;20.40;;;-0.90;99.90;;;;;;8299321;28;20030;-67
2021/04/07 04:44:36;;;;;;;55.88;20.55;;;-1.00;99.90;;;;;;8298764;28;20030;-67
2021/04/07 04:48:37;;;;;;;56.42;20.67;;;-1.00;99.90;;;;;;8297518;28;20061;-67
2021/04/07 04:52:38;;;;;;;53.17;20.15;;;-1.00;99.90;;;;;;8297725;28;20033;-67
2021/04/07 04:56:39;;;;;;;53.20;20.38;;;-1.10;99.90;;;;;;8298463;28;20070;-67
2021/04/07 05:00:40;;;;;;;53.35;20.52;;;-1.20;99.90;;;;;;8324868;28;20107;-66
2021/04/07 05:04:40;;;;;;;53.80;20.55;;;-1.20;99.90;;;;;;8297454;28;20084;-66
2021/04/07 05:08:45;;;;;;;53.08;20.25;;;-1.20;99.90;;;;;;8329063;28;20082;-67
2021/04/07 05:12:45;;;;;;;55.33;21.15;;;-1.10;99.90;;;;;;8330844;28;20507;-67
2021/04/07 05:16:46;;;;;;;52.20;20.08;;;-1.10;99.90;;;;;;8331048;28;20036;-67
2021/04/07 05:20:47;;;;;;;55.40;20.90;;;-1.00;99.90;;;;;;8329462;28;20567;-67
2021/04/07 05:24:47;;;;;;;55.03;20.77;;;-0.90;99.90;;;;;;8330353;28;20415;-67
2021/04/07 05:28:49;;;;;;;55.25;20.45;;;-0.80;99.90;;;;;;8330515;28;20600;-67
2021/04/07 05:32:49;;;;;;;53.28;20.02;;;-0.60;99.90;;;;;;8321561;28;20021;-67
2021/04/07 05:36:50;;;;;;;54.10;20.13;;;-0.50;99.90;;;;;;8322735;28;20403;-66
2021/04/07 05:40:55;;;;;;;54.55;20.42;;;-0.60;99.90;;;;;;8315140;28;20125;-66
2021/04/07 05:44:55;;;;;;;53.55;19.88;;;-0.40;99.90;;;;;;8308555;28;20125;-66
2021/04/07 05:48:56;;;;;;;55.15;20.55;;;-0.30;99.90;;;;;;8309542;28;20095;-66
2021/04/07 05:52:57;;;;;;;56.47;21.02;;;-0.20;99.90;;;;;;8322158;28;20040;-65
2021/04/07 05:56:58;;;;;;;54.83;21.13;;;-0.20;99.90;;;;;;8308286;28;20084;-63
2021/04/07 06:00:59;;;;;;;57.28;21.13;;;-0.10;99.90;;;;;;8299158;28;20026;-63
2021/04/07 06:04:59;;;;;;;58.45;21.75;;;-0.10;99.90;;;;;;8320115;28;20026;-63
2021/04/07 06:09:00;;;;;;;55.20;20.65;;;-0.20;99.90;;;;;;8296202;28;20034;-64
2021/04/07 06:13:01;;;;;;;52.03;20.10;;;0.00;99.90;;;;;;8299874;28;20130;-63
2021/04/07 06:17:02;;;;;;;53.85;20.52;;;-0.10;99.90;;;;;;8296152;28;20519;-63
2021/04/07 06:21:02;;;;;;;54.45;20.58;;;-0.20;99.90;;;;;;8303995;28;20029;-64
2021/04/07 06:25:05;;;;;;;56.03;20.85;;;-0.20;99.90;;;;;;8315625;28;20029;-63
2021/04/07 06:29:06;;;;;;;57.10;20.95;;;-0.10;99.90;;;;;;8296175;28;20068;-63
2021/04/07 06:33:31;;;;;;;57.40;20.92;;;0.00;99.90;;;;;;8308669;28;20704;-63
2021/04/07 06:37:31;;;;;;;58.10;21.27;;;0.10;99.90;;;;;;8307716;28;20036;-63
2021/04/07 06:41:34;;;;;;;57.55;21.05;;;0.10;99.90;;;;;;8324816;28;20512;-63
2021/04/07 06:45:38;;;;;;;57.08;20.75;;;0.10;99.90;;;;;;8319491;28;20087;-63
2021/04/07 06:49:42;;;;;;;58.35;21.15;;;0.20;99.90;;;;;;8314194;28;20029;-63
2021/04/07 06:53:48;;;;;;;58.00;21.02;;;0.30;99.90;;;;;;8314493;28;20124;-64
2021/04/07 06:57:49;;;;;;;59.28;20.98;;;0.40;99.90;;;;;;8317952;28;20527;-63
2021/04/07 07:01:49;;;;;;;59.17;21.00;;;0.40;99.90;;;;;;8317475;28;20034;-63
2021/04/07 07:05:54;;;;;;;60.75;21.27;;;0.40;99.90;;;;;;8309701;28;20041;-63
2021/04/07 07:09:56;;;;;;;61.53;21.20;;;0.50;99.90;;;;;;8314166;28;20029;-63
2021/04/07 07:13:58;;;;;;;64.35;21.35;;;0.60;99.90;;;;;;8310674;28;20029;-63
2021/04/07 07:17:58;;;;;;;63.95;21.35;;;0.90;99.90;;;;;;8309464;28;20032;-64
2021/04/07 07:22:01;;;;;;;64.20;21.35;;;0.70;99.90;;;;;;8307818;28;20026;-63
2021/04/07 07:26:10;;;;;;;63.55;21.33;;;0.70;99.90;;;;;;8309611;28;20080;-62
2021/04/07 07:30:12;;;;;;;64.90;21.67;;;0.70;99.90;;;;;;8313075;28;20030;-63
2021/04/07 07:34:24;;;;;;;62.30;21.17;;;0.60;99.90;;;;;;8309429;28;20025;-63
2021/04/07 07:38:26;;;;;;;60.88;21.17;;;0.60;99.90;;;;;;8310887;28;20041;-64
2021/04/07 07:42:29;;;;;;;60.22;21.25;;;0.70;99.90;;;;;;8304373;28;20033;-63
2021/04/07 07:46:31;;;;;;;61.35;21.77;;;0.60;99.90;;;;;;8306547;28;20038;-64
2021/04/07 07:50:41;;;;;;;58.80;20.85;;;0.50;99.90;;;;;;8303736;28;20157;-63
2021/04/07 07:54:41;;;;;;;58.10;20.95;;;0.30;99.90;;;;;;8299946;28;20518;-63
2021/04/07 07:58:48;;;;;;;59.90;21.25;;;0.30;99.90;;;;;;8316001;28;20033;-63
2021/04/07 08:02:48;;;;;;;61.90;21.48;;;0.30;99.90;;;;;;8321382;28;20026;-63
2021/04/07 08:06:50;;;;;;;62.72;21.25;;;0.80;99.90;;;;;;8308440;28;20034;-63
2021/04/07 08:10:52;;;;;;;61.70;20.65;;;1.10;99.90;;;;;;8297790;28;20512;-64
2021/04/07 08:14:53;;;;;;;64.05;21.25;;;1.20;99.90;;;;;;8296908;28;20057;-63
2021/04/07 08:18:55;;;;;;;68.72;21.52;;;1.30;99.90;;;;;;8302730;28;20036;-63
2021/04/07 08:22:58;;;;;;;73.95;21.73;;;2.00;99.90;;;;;;8323022;28;20034;-62
2021/04/07 08:27:00;;;;;;;72.05;21.65;;;2.00;99.90;;;;;;8315849;28;20041;-64
2021/04/07 08:31:00;;;;;;;71.50;21.45;;;1.80;99.90;;;;;;8314353;28;20025;-63
2021/04/07 08:35:03;;;;;;;73.13;21.65;;;1.60;99.90;;;;;;8315137;28;20053;-63
2021/04/07 08:39:13;;;;;;;74.22;21.70;;;1.70;99.90;;;;;;8317933;28;20172;-63
2021/04/07 08:43:14;;;;;;;71.22;21.88;;;1.90;99.90;;;;;;8310341;28;20091;-62
2021/04/07 08:47:48;;;;;;;75.15;21.75;;;1.90;99.90;;;;;;8314971;28;20068;-63
2021/04/07 08:51:45;;;;;;;75.47;21.73;;;2.50;99.90;;;;;;8304341;28;20041;-64
2021/04/07 08:55:54;;;;;;;74.68;21.88;;;2.60;99.90;;;;;;8312250;28;20030;-64
2021/04/07 08:59:57;;;;;;;72.90;21.58;;;2.10;99.90;;;;;;8312351;28;20558;-62
2021/04/07 09:04:08;;;;;;;75.70;21.48;;;2.10;99.90;;;;;;8313922;28;20022;-63
2021/04/07 09:08:09;;;;;;;78.88;22.13;;;2.40;99.90;;;;;;8318978;28;20022;-63
2021/04/07 09:12:11;;;;;;;76.65;22.25;;;2.70;99.90;;;;;;8315046;28;20022;-63
2021/04/07 09:16:11;;;;;;;79.10;22.33;;;2.30;99.90;;;;;;8310257;28;20034;-63
2021/04/07 09:20:54;;;;;;;79.70;22.20;;;2.60;99.90;;;;;;8308466;28;20679;-63
2021/04/07 09:24:55;;;;;;;80.10;22.45;;;2.50;99.90;;;;;;8298628;28;20072;-65
2021/04/07 09:28:56;;;;;;;78.45;22.00;;;2.30;99.90;;;;;;8318505;28;20037;-63
2021/04/07 09:32:57;;;;;;;79.22;22.38;;;2.10;99.90;;;;;;8311068;28;20033;-64
2021/04/07 09:36:57;;;;;;;80.03;22.25;;;2.40;99.90;;;;;;8314157;28;20036;-63
2021/04/07 09:41:07;;;;;;;80.78;22.50;;;2.90;99.90;;;;;;8309835;28;20671;-62
2021/04/07 09:45:08;;;;;;;80.57;22.45;;;2.60;99.90;;;;;;8308675;28;20029;-63
2021/04/07 09:49:11;;;;;;;81.55;22.65;;;2.60;99.90;;;;;;8314210;28;20200;-63
2021/04/07 09:53:12;;;;;;;80.72;22.23;;;2.60;99.90;;;;;;8310074;28;20026;-63
2021/04/07 09:57:12;;;;;;;82.15;22.25;;;2.80;99.90;;;;;;8312691;28;20036;-63
2021/04/07 10:01:15;;;;;;;82.35;22.67;;;3.30;99.90;;;;;;8319373;28;20029;-63
2021/04/07 10:05:28;;;;;;;82.35;22.38;;;3.30;99.90;;;;;;8309045;28;20041;-64
2021/04/07 10:09:29;;;;;;;81.68;22.20;;;3.30;99.90;;;;;;8305237;28;20030;-64
2021/04/07 10:13:29;;;;;;;82.80;22.60;;;3.40;99.90;;;;;;8314605;28;20451;-65
2021/04/07 10:17:32;;;;;;;82.13;22.15;;;3.60;99.90;;;;;;8310897;28;20040;-63
2021/04/07 10:21:32;;;;;;;83.18;22.38;;;3.10;99.90;;;;;;8345043;28;20056;-63
2021/04/07 10:25:33;;;;;;;80.05;22.20;;;3.30;99.90;;;;;;8344814;28;20028;-63
2021/04/07 10:29:34;;;;;;;79.03;21.90;;;3.90;99.90;;;;;;8348208;28;20029;-63
2021/04/07 10:33:35;;;;;;;81.68;23.52;;;3.90;99.90;;;;;;8335939;28;20394;-64
2021/04/07 10:37:36;;;;;;;82.68;22.63;;;3.60;99.10;;;;;;8351155;28;20036;-63
2021/04/07 10:41:38;;;;;;;82.80;22.85;;;2.90;99.90;;;;;;8349045;28;20025;-63
2021/04/07 10:45:39;;;;;;;83.35;22.67;;;2.50;99.90;;;;;;8351173;28;20021;-63
2021/04/07 10:49:53;;;;;;;81.78;22.92;;;2.40;99.90;;;;;;8349038;28;20095;-63
2021/04/07 10:53:56;;;;;;;81.72;22.77;;;2.10;99.90;;;;;;8342327;28;20029;-63
2021/04/07 10:57:58;;;;;;;84.47;23.00;;;2.00;99.90;;;;;;8346387;28;20025;-63
2021/04/07 11:02:11;;;;;;;83.80;22.77;;;2.40;99.90;;;;;;8342415;28;20021;-63
2021/04/07 11:06:20;;;;;;;83.70;22.75;;;2.50;99.90;;;;;;8309357;28;20063;-64
2021/04/07 11:10:22;;;;;;;84.30;22.73;;;2.30;99.90;;;;;;8314014;28;20025;-65
2021/04/07 11:14:23;;;;;;;84.65;23.05;;;2.40;99.90;;;;;;8312568;28;20046;-64
2021/04/07 11:18:30;;;;;;;83.88;22.73;;;2.60;99.90;;;;;;8309258;28;20041;-64
2021/04/07 11:22:31;;;;;;;84.22;22.92;;;2.50;99.90;;;;;;8311101;28;20060;-64
2021/04/07 11:26:31;;;;;;;85.28;22.70;;;2.40;99.90;;;;;;8307159;28;20030;-64
2021/04/07 11:30:34;;;;;;;84.35;22.48;;;2.70;99.90;;;;;;8308745;28;20068;-65
2021/04/07 11:34:37;;;;;;;83.22;22.58;;;3.40;99.90;;;;;;8309110;28;20079;-65
2021/04/07 11:38:44;;;;;;;83.28;22.42;;;3.70;99.90;;;;;;8306415;28;20029;-64
2021/04/07 11:43:01;;;;;;;84.25;23.17;;;3.20;99.90;;;;;;8303266;28;20075;-65
2021/04/07 11:47:02;;;;;;;84.38;23.15;;;2.90;99.90;;;;;;8306078;28;20519;-64
2021/04/07 11:51:03;;;;;;;83.93;22.63;;;2.90;99.90;;;;;;8309271;28;20484;-64
2021/04/07 11:55:04;;;;;;;83.65;22.65;;;3.00;99.90;;;;;;8310623;28;20029;-64
2021/04/07 11:59:05;;;;;;;84.40;23.10;;;3.10;99.90;;;;;;8304243;28;21362;-63
2021/04/07 12:03:06;;;;;;;82.70;21.90;;;3.10;99.90;;;;;;8311709;28;20029;-65
2021/04/07 12:07:07;;;;;;;83.22;22.58;;;3.20;99.90;;;;;;8309829;28;20512;-64
2021/04/07 12:11:07;;;;;;;82.95;22.67;;;3.10;99.90;;;;;;8308210;28;20026;-64
2021/04/07 12:15:08;;;;;;;83.75;22.80;;;3.10;99.90;;;;;;8303245;28;20037;-65
2021/04/07 12:19:11;;;;;;;82.13;22.25;;;3.00;99.90;;;;;;8291866;28;20026;-64
2021/04/07 12:23:11;;;;;;;79.10;21.80;;;3.60;99.90;;;;;;8298170;28;20036;-64
2021/04/07 12:27:12;;;;;;;76.72;21.83;;;4.20;99.90;;;;;;8301156;28;20041;-64
2021/04/07 12:31:16;;;;;;;69.53;21.00;;;4.20;99.90;;;;;;8318554;28;20052;-64
2021/04/07 12:36:03;;;;;;;68.55;21.27;;;5.50;98.50;;;;;;8318709;28;20509;-63
2021/04/07 12:40:04;;;;;;;70.07;21.20;;;5.00;94.70;;;;;;8311326;28;20063;-64
2021/04/07 12:44:05;;;;;;;72.45;21.27;;;4.20;96.20;;;;;;8311427;28;20021;-64
2021/04/07 12:48:07;;;;;;;74.30;21.60;;;3.80;96.50;;;;;;8309658;28;20034;-64
2021/04/07 12:52:08;;;;;;;74.95;21.88;;;3.60;98.80;;;;;;8310182;28;20076;-63
2021/04/07 12:56:14;;;;;;;74.78;21.67;;;3.80;99.90;;;;;;8313265;28;20033;-63
2021/04/07 13:00:15;;;;;;;74.03;21.77;;;3.80;96.20;;;;;;8314862;28;20058;-64
2021/04/07 13:04:16;;;;;;;74.03;21.73;;;3.90;98.10;;;;;;8316595;28;20022;-64
2021/04/07 13:08:16;;;;;;;75.88;21.95;;;3.90;97.50;;;;;;8315038;28;20616;-64
2021/04/07 13:12:17;;;;;;;75.70;22.50;;;3.50;97.90;;;;;;8323845;28;20025;-64
2021/04/07 13:16:18;;;;;;;74.43;21.83;;;3.50;98.50;;;;;;8317581;28;20037;-64
2021/04/07 13:20:20;;;;;;;72.30;21.60;;;3.80;98.80;;;;;;8319931;28;20480;-63
2021/04/07 13:24:21;;;;;;;72.55;21.65;;;4.30;96.40;;;;;;8310335;28;20030;-64
2021/04/07 13:28:21;;;;;;;71.43;21.58;;;4.00;95.50;;;;;;8309618;28;20038;-65
2021/04/07 13:32:25;;;;;;;71.13;22.50;;;4.10;96.60;;;;;;8309801;28;20080;-64
2021/04/07 13:37:04;;;;;;;70.43;21.33;;;4.40;95.30;;;;;;8308519;28;20029;-64
2021/04/07 13:45:12;;;;;;;75.22;21.85;;;3.90;98.40;;;;;;8312518;28;20518;-64
2021/04/07 13:49:13;;;;;;;77.18;22.38;;;3.50;99.00;;;;;;8316026;28;20038;-64
2021/04/07 13:53:17;;;;;;;76.38;21.98;;;3.30;99.90;;;;;;8312532;28;20029;-64
2021/04/07 13:57:28;;;;;;;82.00;22.48;;;3.30;99.90;;;;;;8320899;28;20036;-64
2021/04/07 14:01:28;;;;;;;82.63;22.55;;;2.90;99.90;;;;;;8312895;28;20022;-65
2021/04/07 14:05:30;;;;;;;82.90;22.42;;;2.90;99.90;;;;;;8305518;28;20040;-68
2021/04/07 14:09:32;;;;;;;82.32;22.65;;;2.90;99.90;;;;;;8311004;28;20025;-69
2021/04/07 14:13:32;;;;;;;84.53;22.98;;;2.90;99.90;;;;;;8316731;28;20435;-71
2021/04/07 14:17:33;;;;;;;83.97;22.52;;;2.50;99.90;;;;;;8315824;28;20116;-70
2021/04/07 14:21:34;;;;;;;83.88;22.73;;;2.30;99.90;;;;;;8307718;28;20097;-70
2021/04/07 14:25:35;;;;;;;84.75;22.48;;;2.20;99.90;;;;;;8311777;28;20021;-70
2021/04/07 14:29:36;;;;;;;83.10;22.15;;;2.80;99.90;;;;;;8322596;28;20029;-69
2021/04/07 14:33:36;;;;;;;81.78;22.25;;;3.20;99.90;;;;;;8327223;28;20025;-68
2021/04/07 14:37:38;;;;;;;78.85;22.38;;;3.90;99.90;;;;;;8310328;28;20042;-70
2021/04/07 14:41:38;;;;;;;75.03;21.50;;;3.90;99.90;;;;;;8320636;28;20026;-68
2021/04/07 14:45:42;;;;;;;74.30;21.52;;;4.10;99.90;;;;;;8314877;28;20404;-68
2021/04/07 14:49:43;;;;;;;74.20;21.35;;;4.20;99.90;;;;;;8313326;28;20025;-69
2021/04/07 14:53:44;;;;;;;76.35;21.80;;;4.00;99.90;;;;;;8314555;28;20033;-70
2021/04/07 14:57:45;;;;;;;77.00;22.13;;;3.60;99.90;;;;;;8312095;28;20033;-70
2021/04/07 15:01:45;;;;;;;79.10;22.50;;;3.40;99.90;;;;;;8305541;28;20559;-70
2021/04/07 15:05:46;;;;;;;80.97;22.55;;;3.30;99.90;;;;;;8313076;28;20030;-68
2021/04/07 15:09:47;;;;;;;81.63;22.42;;;3.10;99.90;;;;;;8316850;28;20049;-68
2021/04/07 15:13:47;;;;;;;80.05;22.40;;;3.10;99.90;;;;;;8306309;28;20476;-71
2021/04/07 15:17:48;;;;;;;80.80;23.10;;;3.40;99.90;;;;;;8309022;28;20044;-70
2021/04/07 15:21:49;;;;;;;80.70;22.05;;;3.20;99.90;;;;;;8300464;28;20619;-69
2021/04/07 15:26:04;;;;;;;82.10;22.33;;;3.00;99.90;;;;;;8310970;28;20057;-70
2021/04/07 15:30:05;;;;;;;83.53;22.65;;;3.10;99.90;;;;;;8314913;28;20087;-68
2021/04/07 15:34:05;;;;;;;84.20;22.63;;;2.80;99.90;;;;;;8303667;28;20507;-70
2021/04/07 15:38:06;;;;;;;82.40;22.45;;;2.80;99.90;;;;;;8307084;28;20020;-69
2021/04/07 15:42:07;;;;;;;81.05;22.60;;;3.00;99.90;;;;;;8308412;28;20030;-70
2021/04/07 15:46:08;;;;;;;78.32;22.65;;;3.30;99.90;;;;;;8309761;28;20555;-69
2021/04/07 15:50:09;;;;;;;77.50;21.50;;;3.60;99.90;;;;;;8305698;28;20033;-69
2021/04/07 15:54:10;;;;;;;80.03;22.27;;;3.40;99.90;;;;;;8301536;28;20140;-69
2021/04/07 15:58:12;;;;;;;81.40;22.40;;;3.20;99.90;;;;;;8307860;28;20104;-68
2021/04/07 16:02:13;;;;;;;81.82;22.52;;;3.00;99.90;;;;;;8318558;28;20021;-69
2021/04/07 16:06:13;;;;;;;83.25;22.85;;;3.00;99.90;;;;;;8324633;28;20405;-68
2021/04/07 16:10:14;;;;;;;84.05;23.08;;;2.80;99.90;;;;;;8304337;28;20040;-68
2021/04/07 16:14:14;;;;;;;84.93;22.88;;;2.60;99.90;;;;;;8291822;28;20172;-69
2021/04/07 16:18:15;;;;;;;84.22;22.85;;;2.60;99.90;;;;;;8292339;28;20054;-68
2021/04/07 16:22:15;;;;;;;84.32;23.08;;;2.60;99.90;;;;;;8317544;28;20029;-69
2021/04/07 16:26:16;;;;;;;85.03;23.02;;;2.60;99.90;;;;;;8324202;28;20034;-69
2021/04/07 16:30:19;;;;;;;84.22;22.73;;;2.60;99.90;;;;;;8311394;28;20053;-68
2021/04/07 16:34:20;;;;;;;84.13;22.60;;;2.50;99.90;;;;;;8311258;28;20559;-67
2021/04/07 16:38:21;;;;;;;84.82;22.73;;;2.50;99.90;;;;;;8318363;28;20624;-67
2021/04/07 16:42:21;;;;;;;86.05;23.38;;;2.50;99.90;;;;;;8315245;28;20033;-66
2021/04/07 16:46:22;;;;;;;85.43;23.02;;;2.40;99.90;;;;;;8311916;28;20037;-67
2021/04/07 16:50:24;;;;;;;85.75;23.00;;;2.30;99.90;;;;;;8307513;28;20595;-66
2021/04/07 16:54:25;;;;;;;85.47;23.13;;;2.30;99.90;;;;;;8305316;28;20045;-66
2021/04/07 16:58:25;;;;;;;85.95;23.25;;;2.20;99.90;;;;;;8300543;28;20053;-66
2021/04/07 17:02:26;;;;;;;88.28;24.65;;;2.30;99.90;;;;;;8318887;28;20564;-66
2021/04/07 17:06:26;;;;;;;86.47;23.63;;;2.20;99.90;;;;;;8319227;28;20034;-66
2021/04/07 17:10:27;;;;;;;85.25;22.77;;;1.80;99.90;;;;;;8303486;28;20092;-66
2021/04/07 17:14:30;;;;;;;83.00;22.90;;;1.80;99.90;;;;;;8308973;28;20124;-66
2021/04/07 17:18:31;;;;;;;83.57;22.38;;;1.50;99.90;;;;;;8307645;28;20029;-66
2021/04/07 17:22:31;;;;;;;83.55;22.67;;;1.40;99.90;;;;;;8302365;28;20048;-66
2021/04/07 17:26:32;;;;;;;82.25;22.80;;;1.30;99.90;;;;;;8320090;28;20101;-65
2021/04/07 17:30:42;;;;;;;82.25;23.02;;;1.10;99.90;;;;;;8318311;28;20129;-65
2021/04/07 17:34:42;;;;;;;82.07;23.35;;;1.00;99.90;;;;;;8320805;28;20032;-66
2021/04/07 17:38:43;;;;;;;76.50;22.08;;;1.00;99.90;;;;;;8318662;28;20037;-67
2021/04/07 17:42:43;;;;;;;75.10;22.23;;;0.90;99.90;;;;;;8303168;28;20030;-65
2021/04/07 17:46:44;;;;;;;73.80;22.08;;;0.70;99.90;;;;;;8306247;28;20038;-66
2021/04/07 17:50:45;;;;;;;73.22;22.02;;;0.70;99.90;;;;;;8308682;28;20116;-65
2021/04/07 17:54:46;;;;;;;73.22;22.05;;;0.70;99.90;;;;;;8307567;28;20045;-65
2021/04/07 17:58:47;;;;;;;73.35;21.85;;;0.80;99.90;;;;;;8305178;28;20551;-65
2021/04/07 18:02:48;;;;;;;74.18;21.98;;;0.70;99.90;;;;;;8300738;28;20030;-65
2021/04/07 18:06:48;;;;;;;73.63;21.98;;;0.60;99.90;;;;;;8300918;28;20037;-65
2021/04/07 18:10:49;;;;;;;72.47;21.83;;;0.50;99.90;;;;;;8303745;28;20034;-65
2021/04/07 18:14:51;;;;;;;71.85;21.73;;;0.40;99.90;;;;;;8310122;28;20041;-65
2021/04/07 18:18:51;;;;;;;72.00;21.42;;;0.40;99.90;;;;;;8319664;28;20500;-66
2021/04/07 18:22:53;;;;;;;72.80;21.88;;;0.40;99.90;;;;;;8307129;28;20037;-66
2021/04/07 18:26:55;;;;;;;72.40;22.13;;;0.40;99.90;;;;;;8300249;28;20044;-65
2021/04/07 18:30:55;;;;;;;73.13;21.92;;;0.40;99.90;;;;;;8307977;28;20821;-65
2021/04/07 18:34:56;;;;;;;73.35;22.15;;;0.40;99.90;;;;;;8306920;28;20034;-66
2021/04/07 18:38:56;;;;;;;72.88;21.88;;;0.40;99.90;;;;;;8307537;28;20042;-66
2021/04/07 18:42:57;;;;;;;73.88;22.08;;;0.40;99.90;;;;;;8307275;28;20034;-66
2021/04/07 18:46:58;;;;;;;73.95;22.02;;;0.40;99.90;;;;;;8308820;28;20025;-66
2021/04/07 18:50:58;;;;;;;74.82;22.10;;;0.50;99.90;;;;;;8306505;28;20683;-66
2021/04/07 18:54:59;;;;;;;74.85;22.17;;;0.50;99.90;;;;;;8315896;28;20044;-66
2021/04/07 18:59:00;;;;;;;74.28;22.02;;;0.60;99.90;;;;;;8322069;28;20293;-66
2021/04/07 19:03:01;;;;;;;75.40;22.25;;;0.50;99.90;;;;;;8300998;28;20026;-66
2021/04/07 19:07:02;;;;;;;74.82;22.08;;;0.50;99.90;;;;;;8303849;28;20428;-66
2021/04/07 19:11:03;;;;;;;75.47;22.25;;;0.50;99.90;;;;;;8306156;28;20098;-66
2021/04/07 19:15:06;;;;;;;76.50;22.38;;;0.50;99.90;;;;;;8307524;28;20029;-66
2021/04/07 19:19:07;;;;;;;76.15;22.45;;;0.60;99.90;;;;;;8305103;28;20548;-65
2021/04/07 19:23:08;;;;;;;76.53;23.00;;;0.50;99.90;;;;;;8301218;28;20108;-69
2021/04/07 19:27:09;;;;;;;76.72;22.92;;;0.50;99.90;;;;;;8302995;28;20038;-68
2021/04/07 19:31:09;;;;;;;75.25;22.23;;;0.50;99.90;;;;;;8313509;28;20041;-68
2021/04/07 19:35:10;;;;;;;75.05;22.35;;;0.40;99.90;;;;;;8314735;28;20059;-69
2021/04/07 19:39:11;;;;;;;75.53;22.48;;;0.40;99.90;;;;;;8310931;28;20029;-69
2021/04/07 19:43:12;;;;;;;75.57;22.15;;;0.50;99.90;;;;;;8305597;28;20018;-69
2021/04/07 19:47:12;;;;;;;74.93;22.23;;;0.40;99.90;;;;;;8299439;28;20638;-69
2021/04/07 19:51:13;;;;;;;74.63;22.13;;;0.50;99.90;;;;;;8303663;28;20041;-68
2021/04/07 19:55:14;;;;;;;74.43;22.13;;;0.40;99.90;;;;;;8305092;28;20033;-68
2021/04/07 19:59:14;;;;;;;73.40;21.90;;;0.40;99.90;;;;;;8303017;28;20025;-68
2021/04/07 20:03:15;;;;;;;73.15;22.13;;;0.40;99.90;;;;;;8308111;28;20037;-68
2021/04/07 20:07:16;;;;;;;73.80;22.15;;;0.40;99.90;;;;;;8313365;28;20030;-69
2021/04/07 20:11:16;;;;;;;72.63;22.48;;;0.30;99.90;;;;;;8304332;28;20108;-69
2021/04/07 20:15:17;;;;;;;72.57;21.98;;;0.50;99.90;;;;;;8304770;28;20423;-68
2021/04/07 20:19:18;;;;;;;74.45;22.38;;;0.40;99.90;;;;;;8295794;28;20037;-69
2021/04/07 20:23:19;;;;;;;75.05;22.42;;;0.50;99.90;;;;;;8294265;28;20045;-69
2021/04/07 20:27:19;;;;;;;74.20;21.95;;;0.40;99.90;;;;;;8295707;28;20111;-69
2021/04/07 20:31:20;;;;;;;74.20;21.98;;;0.50;99.90;;;;;;8296441;28;20049;-69
2021/04/07 20:35:21;;;;;;;73.25;22.10;;;0.50;99.90;;;;;;8305961;28;20088;-69
2021/04/07 20:39:22;;;;;;;73.65;22.00;;;0.60;99.90;;;;;;8299462;28;20026;-68
2021/04/07 20:43:23;;;;;;;74.10;22.05;;;0.60;99.90;;;;;;8303656;28;20029;-69